sensor_id;sensor_type;location;lat;lon;timestamp;temperature;humidity
12839;DHT22;6486;51.034;5.262;2023-11-18T00:00:01;8.00;84.10
12839;DHT22;6486;51.034;5.262;2023-11-18T00:02:26;8.00;84.10
12839;DHT22;6486;51.034;5.262;2023-11-18T00:04:52;8.00;84.20
12839;DHT22;6486;51.034;5.262;2023-11-18T00:07:18;8.00;84.30
12839;DHT22;6486;51.034;5.262;2023-11-18T00:09:43;8.00;84.30
12839;DHT22;6486;51.034;5.262;2023-11-18T00:12:12;8.00;84.40
12839;DHT22;6486;51.034;5.262;2023-11-18T00:14:37;8.00;84.50
12839;DHT22;6486;51.034;5.262;2023-11-18T00:17:03;8.00;84.40
12839;DHT22;6486;51.034;5.262;2023-11-18T00:19:29;8.00;84.30
12839;DHT22;6486;51.034;5.262;2023-11-18T00:21:55;8.00;84.30
12839;DHT22;6486;51.034;5.262;2023-11-18T00:24:21;8.00;84.30
12839;DHT22;6486;51.034;5.262;2023-11-18T00:26:46;8.00;84.20
12839;DHT22;6486;51.034;5.262;2023-11-18T00:29:12;8.00;84.20
12839;DHT22;6486;51.034;5.262;2023-11-18T00:31:38;8.00;84.30
12839;DHT22;6486;51.034;5.262;2023-11-18T00:34:03;8.00;84.30
12839;DHT22;6486;51.034;5.262;2023-11-18T00:36:29;7.90;84.20
12839;DHT22;6486;51.034;5.262;2023-11-18T00:38:54;7.90;84.30
12839;DHT22;6486;51.034;5.262;2023-11-18T00:41:20;7.90;84.30
12839;DHT22;6486;51.034;5.262;2023-11-18T00:43:46;7.90;84.30
12839;DHT22;6486;51.034;5.262;2023-11-18T00:46:12;7.90;84.30
12839;DHT22;6486;51.034;5.262;2023-11-18T00:48:38;7.90;84.20
12839;DHT22;6486;51.034;5.262;2023-11-18T00:51:05;7.90;84.20
12839;DHT22;6486;51.034;5.262;2023-11-18T00:53:31;7.80;84.10
12839;DHT22;6486;51.034;5.262;2023-11-18T00:55:56;7.90;84.20
12839;DHT22;6486;51.034;5.262;2023-11-18T00:58:22;7.80;84.10
12839;DHT22;6486;51.034;5.262;2023-11-18T01:00:48;7.80;84.10
12839;DHT22;6486;51.034;5.262;2023-11-18T01:03:14;7.80;84.10
12839;DHT22;6486;51.034;5.262;2023-11-18T01:05:39;7.70;84.10
12839;DHT22;6486;51.034;5.262;2023-11-18T01:08:05;7.80;84.20
12839;DHT22;6486;51.034;5.262;2023-11-18T01:10:30;7.80;84.10
12839;DHT22;6486;51.034;5.262;2023-11-18T01:12:56;7.70;84.00
12839;DHT22;6486;51.034;5.262;2023-11-18T01:15:23;7.70;83.90
12839;DHT22;6486;51.034;5.262;2023-11-18T01:17:49;7.70;83.80
12839;DHT22;6486;51.034;5.262;2023-11-18T01:20:15;7.70;84.00
12839;DHT22;6486;51.034;5.262;2023-11-18T01:22:46;7.70;84.00
12839;DHT22;6486;51.034;5.262;2023-11-18T01:25:14;7.70;84.10
12839;DHT22;6486;51.034;5.262;2023-11-18T01:27:43;7.70;84.20
12839;DHT22;6486;51.034;5.262;2023-11-18T01:30:12;7.70;84.20
12839;DHT22;6486;51.034;5.262;2023-11-18T01:32:38;7.70;84.20
12839;DHT22;6486;51.034;5.262;2023-11-18T01:35:05;7.70;84.20
12839;DHT22;6486;51.034;5.262;2023-11-18T01:37:31;7.70;84.20
12839;DHT22;6486;51.034;5.262;2023-11-18T01:39:57;7.80;84.30
12839;DHT22;6486;51.034;5.262;2023-11-18T01:42:23;7.80;84.30
12839;DHT22;6486;51.034;5.262;2023-11-18T01:44:48;7.80;84.30
12839;DHT22;6486;51.034;5.262;2023-11-18T01:47:14;7.80;84.30
12839;DHT22;6486;51.034;5.262;2023-11-18T01:49:40;7.80;84.30
12839;DHT22;6486;51.034;5.262;2023-11-18T01:52:07;7.80;84.30
12839;DHT22;6486;51.034;5.262;2023-11-18T01:54:35;7.80;84.30
12839;DHT22;6486;51.034;5.262;2023-11-18T01:57:03;7.80;84.30
12839;DHT22;6486;51.034;5.262;2023-11-18T01:59:32;7.80;84.30
12839;DHT22;6486;51.034;5.262;2023-11-18T02:01:59;7.80;84.30
12839;DHT22;6486;51.034;5.262;2023-11-18T02:04:25;7.80;84.30
12839;DHT22;6486;51.034;5.262;2023-11-18T02:06:52;7.80;84.30
12839;DHT22;6486;51.034;5.262;2023-11-18T02:09:19;7.80;84.30
12839;DHT22;6486;51.034;5.262;2023-11-18T02:12:16;7.80;84.30
12839;DHT22;6486;51.034;5.262;2023-11-18T02:14:45;7.80;84.40
12839;DHT22;6486;51.034;5.262;2023-11-18T02:17:14;7.70;84.30
12839;DHT22;6486;51.034;5.262;2023-11-18T02:19:40;7.70;84.40
12839;DHT22;6486;51.034;5.262;2023-11-18T02:22:08;7.80;84.50
12839;DHT22;6486;51.034;5.262;2023-11-18T02:24:35;7.80;84.50
12839;DHT22;6486;51.034;5.262;2023-11-18T02:27:06;7.80;84.50
12839;DHT22;6486;51.034;5.262;2023-11-18T02:29:38;7.80;84.50
12839;DHT22;6486;51.034;5.262;2023-11-18T02:32:20;7.80;85.10
12839;DHT22;6486;51.034;5.262;2023-11-18T02:37:39;7.80;84.50
12839;DHT22;6486;51.034;5.262;2023-11-18T02:40:07;7.80;84.50
12839;DHT22;6486;51.034;5.262;2023-11-18T02:42:37;7.80;84.50
12839;DHT22;6486;51.034;5.262;2023-11-18T02:45:05;7.80;84.60
12839;DHT22;6486;51.034;5.262;2023-11-18T02:47:33;7.80;84.60
12839;DHT22;6486;51.034;5.262;2023-11-18T02:49:58;7.80;84.60
12839;DHT22;6486;51.034;5.262;2023-11-18T02:52:37;7.80;84.60
12839;DHT22;6486;51.034;5.262;2023-11-18T02:55:04;7.80;84.60
12839;DHT22;6486;51.034;5.262;2023-11-18T02:57:32;7.70;84.50
12839;DHT22;6486;51.034;5.262;2023-11-18T02:59:58;7.70;84.40
12839;DHT22;6486;51.034;5.262;2023-11-18T03:02:28;7.80;84.60
12839;DHT22;6486;51.034;5.262;2023-11-18T03:04:58;7.70;84.50
12839;DHT22;6486;51.034;5.262;2023-11-18T03:07:24;7.70;84.50
12839;DHT22;6486;51.034;5.262;2023-11-18T03:09:52;7.70;84.50
12839;DHT22;6486;51.034;5.262;2023-11-18T03:12:18;7.70;84.60
12839;DHT22;6486;51.034;5.262;2023-11-18T03:14:43;7.70;84.60
12839;DHT22;6486;51.034;5.262;2023-11-18T03:17:10;7.70;84.70
12839;DHT22;6486;51.034;5.262;2023-11-18T03:19:35;7.70;84.70
12839;DHT22;6486;51.034;5.262;2023-11-18T03:22:02;7.70;84.70
12839;DHT22;6486;51.034;5.262;2023-11-18T03:24:28;7.70;84.60
12839;DHT22;6486;51.034;5.262;2023-11-18T03:26:57;7.70;84.60
12839;DHT22;6486;51.034;5.262;2023-11-18T03:29:23;7.70;84.60
12839;DHT22;6486;51.034;5.262;2023-11-18T03:31:49;7.70;84.60
12839;DHT22;6486;51.034;5.262;2023-11-18T03:34:18;7.70;84.60
12839;DHT22;6486;51.034;5.262;2023-11-18T03:36:47;7.70;84.60
12839;DHT22;6486;51.034;5.262;2023-11-18T03:39:13;7.70;84.70
12839;DHT22;6486;51.034;5.262;2023-11-18T03:41:40;7.70;84.70
12839;DHT22;6486;51.034;5.262;2023-11-18T03:44:05;7.70;84.70
12839;DHT22;6486;51.034;5.262;2023-11-18T03:46:31;7.70;84.70
12839;DHT22;6486;51.034;5.262;2023-11-18T03:49:00;7.70;84.70
12839;DHT22;6486;51.034;5.262;2023-11-18T03:51:27;7.70;84.70
12839;DHT22;6486;51.034;5.262;2023-11-18T03:53:52;7.70;84.70
12839;DHT22;6486;51.034;5.262;2023-11-18T03:56:18;7.70;84.70
12839;DHT22;6486;51.034;5.262;2023-11-18T03:58:44;7.70;84.70
12839;DHT22;6486;51.034;5.262;2023-11-18T04:01:19;7.70;84.80
12839;DHT22;6486;51.034;5.262;2023-11-18T04:03:45;7.70;84.70
12839;DHT22;6486;51.034;5.262;2023-11-18T04:06:11;7.70;84.70
12839;DHT22;6486;51.034;5.262;2023-11-18T04:08:37;7.70;84.70
12839;DHT22;6486;51.034;5.262;2023-11-18T04:11:03;7.70;84.70
12839;DHT22;6486;51.034;5.262;2023-11-18T04:13:29;7.70;84.70
12839;DHT22;6486;51.034;5.262;2023-11-18T04:15:55;7.70;84.70
12839;DHT22;6486;51.034;5.262;2023-11-18T04:18:21;7.70;84.60
12839;DHT22;6486;51.034;5.262;2023-11-18T04:20:46;7.70;84.70
12839;DHT22;6486;51.034;5.262;2023-11-18T04:23:12;7.70;84.70
12839;DHT22;6486;51.034;5.262;2023-11-18T04:25:39;7.70;84.70
12839;DHT22;6486;51.034;5.262;2023-11-18T04:28:05;7.70;85.40
12839;DHT22;6486;51.034;5.262;2023-11-18T04:30:30;7.70;84.90
12839;DHT22;6486;51.034;5.262;2023-11-18T04:32:56;7.70;84.90
12839;DHT22;6486;51.034;5.262;2023-11-18T04:35:21;7.70;84.90
12839;DHT22;6486;51.034;5.262;2023-11-18T04:37:48;7.70;85.00
12839;DHT22;6486;51.034;5.262;2023-11-18T04:40:13;7.70;85.00
12839;DHT22;6486;51.034;5.262;2023-11-18T04:42:40;7.80;85.20
12839;DHT22;6486;51.034;5.262;2023-11-18T04:45:06;7.80;85.20
12839;DHT22;6486;51.034;5.262;2023-11-18T04:47:32;7.80;85.20
12839;DHT22;6486;51.034;5.262;2023-11-18T04:49:57;7.80;85.20
12839;DHT22;6486;51.034;5.262;2023-11-18T04:52:23;7.80;85.20
12839;DHT22;6486;51.034;5.262;2023-11-18T04:54:48;7.80;85.20
12839;DHT22;6486;51.034;5.262;2023-11-18T04:57:14;7.80;85.30
12839;DHT22;6486;51.034;5.262;2023-11-18T04:59:41;7.80;85.20
12839;DHT22;6486;51.034;5.262;2023-11-18T05:02:07;7.80;85.30
12839;DHT22;6486;51.034;5.262;2023-11-18T05:04:32;7.90;85.40
12839;DHT22;6486;51.034;5.262;2023-11-18T05:06:58;7.90;85.40
12839;DHT22;6486;51.034;5.262;2023-11-18T05:09:23;7.90;85.40
12839;DHT22;6486;51.034;5.262;2023-11-18T05:11:49;7.90;85.40
12839;DHT22;6486;51.034;5.262;2023-11-18T05:14:15;7.90;85.40
12839;DHT22;6486;51.034;5.262;2023-11-18T05:16:42;7.90;85.40
12839;DHT22;6486;51.034;5.262;2023-11-18T05:19:07;7.90;85.50
12839;DHT22;6486;51.034;5.262;2023-11-18T05:21:33;7.90;85.50
12839;DHT22;6486;51.034;5.262;2023-11-18T05:23:59;7.90;85.50
12839;DHT22;6486;51.034;5.262;2023-11-18T05:26:24;8.00;85.60
12839;DHT22;6486;51.034;5.262;2023-11-18T05:28:50;8.00;85.60
12839;DHT22;6486;51.034;5.262;2023-11-18T05:31:16;8.00;85.70
12839;DHT22;6486;51.034;5.262;2023-11-18T05:33:42;8.00;86.40
12839;DHT22;6486;51.034;5.262;2023-11-18T05:36:08;8.00;85.70
12839;DHT22;6486;51.034;5.262;2023-11-18T05:38:34;8.00;85.70
12839;DHT22;6486;51.034;5.262;2023-11-18T05:41:02;8.00;85.70
12839;DHT22;6486;51.034;5.262;2023-11-18T05:43:30;8.00;85.70
12839;DHT22;6486;51.034;5.262;2023-11-18T05:46:02;8.00;85.70
12839;DHT22;6486;51.034;5.262;2023-11-18T05:48:45;8.10;85.80
12839;DHT22;6486;51.034;5.262;2023-11-18T05:51:11;8.10;86.40
12839;DHT22;6486;51.034;5.262;2023-11-18T05:53:40;8.00;85.70
12839;DHT22;6486;51.034;5.262;2023-11-18T05:56:07;8.10;86.40
12839;DHT22;6486;51.034;5.262;2023-11-18T05:58:33;8.10;85.80
12839;DHT22;6486;51.034;5.262;2023-11-18T06:00:59;8.10;85.80
12839;DHT22;6486;51.034;5.262;2023-11-18T06:03:25;8.10;85.80
12839;DHT22;6486;51.034;5.262;2023-11-18T06:05:52;8.10;85.90
12839;DHT22;6486;51.034;5.262;2023-11-18T06:08:17;8.10;86.50
12839;DHT22;6486;51.034;5.262;2023-11-18T06:10:43;8.10;85.80
12839;DHT22;6486;51.034;5.262;2023-11-18T06:13:10;8.10;85.80
12839;DHT22;6486;51.034;5.262;2023-11-18T06:15:38;8.10;86.40
12839;DHT22;6486;51.034;5.262;2023-11-18T06:18:04;8.20;85.90
12839;DHT22;6486;51.034;5.262;2023-11-18T06:20:30;8.10;85.80
12839;DHT22;6486;51.034;5.262;2023-11-18T06:22:56;8.10;85.90
12839;DHT22;6486;51.034;5.262;2023-11-18T06:25:22;8.20;85.90
12839;DHT22;6486;51.034;5.262;2023-11-18T06:27:51;8.20;86.70
12839;DHT22;6486;51.034;5.262;2023-11-18T06:30:18;8.10;85.90
12839;DHT22;6486;51.034;5.262;2023-11-18T06:32:45;8.20;86.10
12839;DHT22;6486;51.034;5.262;2023-11-18T06:35:12;8.20;86.10
12839;DHT22;6486;51.034;5.262;2023-11-18T06:37:40;8.20;86.20
12839;DHT22;6486;51.034;5.262;2023-11-18T06:40:06;8.20;86.10
12839;DHT22;6486;51.034;5.262;2023-11-18T06:42:44;8.20;86.80
12839;DHT22;6486;51.034;5.262;2023-11-18T06:45:16;8.20;86.10
12839;DHT22;6486;51.034;5.262;2023-11-18T06:47:42;8.20;86.20
12839;DHT22;6486;51.034;5.262;2023-11-18T06:50:10;8.20;86.20
12839;DHT22;6486;51.034;5.262;2023-11-18T06:52:40;8.20;86.20
12839;DHT22;6486;51.034;5.262;2023-11-18T06:55:07;8.20;86.30
12839;DHT22;6486;51.034;5.262;2023-11-18T06:57:34;8.20;86.30
12839;DHT22;6486;51.034;5.262;2023-11-18T06:59:59;8.20;86.30
12839;DHT22;6486;51.034;5.262;2023-11-18T07:02:25;8.20;86.30
12839;DHT22;6486;51.034;5.262;2023-11-18T07:04:50;8.20;86.40
12839;DHT22;6486;51.034;5.262;2023-11-18T07:07:16;8.20;86.40
12839;DHT22;6486;51.034;5.262;2023-11-18T07:09:42;8.20;86.40
12839;DHT22;6486;51.034;5.262;2023-11-18T07:12:10;8.30;86.50
12839;DHT22;6486;51.034;5.262;2023-11-18T07:14:35;8.30;86.50
12839;DHT22;6486;51.034;5.262;2023-11-18T07:17:01;8.30;86.50
12839;DHT22;6486;51.034;5.262;2023-11-18T07:19:26;8.30;86.40
12839;DHT22;6486;51.034;5.262;2023-11-18T07:21:54;8.30;86.40
12839;DHT22;6486;51.034;5.262;2023-11-18T07:24:20;8.30;86.50
12839;DHT22;6486;51.034;5.262;2023-11-18T07:26:45;8.30;86.50
12839;DHT22;6486;51.034;5.262;2023-11-18T07:29:11;8.30;86.50
12839;DHT22;6486;51.034;5.262;2023-11-18T07:31:37;8.30;86.50
12839;DHT22;6486;51.034;5.262;2023-11-18T07:34:03;8.30;86.50
12839;DHT22;6486;51.034;5.262;2023-11-18T07:36:31;8.40;86.60
12839;DHT22;6486;51.034;5.262;2023-11-18T07:38:57;8.40;86.60
12839;DHT22;6486;51.034;5.262;2023-11-18T07:41:24;8.40;86.70
12839;DHT22;6486;51.034;5.262;2023-11-18T07:43:50;8.40;86.70
12839;DHT22;6486;51.034;5.262;2023-11-18T07:46:18;8.40;86.80
12839;DHT22;6486;51.034;5.262;2023-11-18T07:48:43;8.40;86.90
12839;DHT22;6486;51.034;5.262;2023-11-18T07:51:09;8.40;87.00
12839;DHT22;6486;51.034;5.262;2023-11-18T07:53:38;8.40;87.00
12839;DHT22;6486;51.034;5.262;2023-11-18T07:56:04;8.40;87.00
12839;DHT22;6486;51.034;5.262;2023-11-18T07:58:31;8.40;87.00
12839;DHT22;6486;51.034;5.262;2023-11-18T08:00:57;8.50;87.10
12839;DHT22;6486;51.034;5.262;2023-11-18T08:03:24;8.50;87.30
12839;DHT22;6486;51.034;5.262;2023-11-18T08:05:50;8.50;87.30
12839;DHT22;6486;51.034;5.262;2023-11-18T08:08:16;8.50;87.30
12839;DHT22;6486;51.034;5.262;2023-11-18T08:10:42;8.60;87.30
12839;DHT22;6486;51.034;5.262;2023-11-18T08:13:10;8.50;87.30
12839;DHT22;6486;51.034;5.262;2023-11-18T08:15:40;8.50;87.30
12839;DHT22;6486;51.034;5.262;2023-11-18T08:18:07;8.50;87.40
12839;DHT22;6486;51.034;5.262;2023-11-18T08:20:33;8.50;87.40
12839;DHT22;6486;51.034;5.262;2023-11-18T08:22:59;8.60;87.60
12839;DHT22;6486;51.034;5.262;2023-11-18T08:25:25;8.60;87.70
12839;DHT22;6486;51.034;5.262;2023-11-18T08:27:51;8.60;87.70
12839;DHT22;6486;51.034;5.262;2023-11-18T08:30:17;8.60;87.70
12839;DHT22;6486;51.034;5.262;2023-11-18T08:32:45;8.60;87.80
12839;DHT22;6486;51.034;5.262;2023-11-18T08:35:13;8.60;87.90
12839;DHT22;6486;51.034;5.262;2023-11-18T08:37:39;8.60;88.00
12839;DHT22;6486;51.034;5.262;2023-11-18T08:40:07;8.70;88.20
12839;DHT22;6486;51.034;5.262;2023-11-18T08:42:43;8.70;88.20
12839;DHT22;6486;51.034;5.262;2023-11-18T08:45:14;8.70;88.20
12839;DHT22;6486;51.034;5.262;2023-11-18T08:47:45;8.70;88.30
12839;DHT22;6486;51.034;5.262;2023-11-18T08:50:15;8.70;88.40
12839;DHT22;6486;51.034;5.262;2023-11-18T08:52:43;8.70;88.40
12839;DHT22;6486;51.034;5.262;2023-11-18T08:55:15;8.70;88.40
12839;DHT22;6486;51.034;5.262;2023-11-18T08:57:47;8.80;88.50
12839;DHT22;6486;51.034;5.262;2023-11-18T09:00:28;8.80;88.40
12839;DHT22;6486;51.034;5.262;2023-11-18T09:03:25;8.80;88.40
12839;DHT22;6486;51.034;5.262;2023-11-18T09:05:58;8.80;88.40
12839;DHT22;6486;51.034;5.262;2023-11-18T09:11:08;8.80;88.50
12839;DHT22;6486;51.034;5.262;2023-11-18T09:13:34;8.90;88.60
12839;DHT22;6486;51.034;5.262;2023-11-18T09:16:06;8.90;88.70
12839;DHT22;6486;51.034;5.262;2023-11-18T09:18:39;8.90;88.70
12839;DHT22;6486;51.034;5.262;2023-11-18T09:21:06;8.90;88.70
12839;DHT22;6486;51.034;5.262;2023-11-18T09:23:33;9.00;88.80
12839;DHT22;6486;51.034;5.262;2023-11-18T09:26:03;9.00;88.80
12839;DHT22;6486;51.034;5.262;2023-11-18T09:28:33;9.00;88.80
12839;DHT22;6486;51.034;5.262;2023-11-18T09:31:01;9.00;88.80
12839;DHT22;6486;51.034;5.262;2023-11-18T09:33:29;9.00;88.80
12839;DHT22;6486;51.034;5.262;2023-11-18T09:36:06;9.00;88.90
12839;DHT22;6486;51.034;5.262;2023-11-18T09:38:38;9.10;89.70
12839;DHT22;6486;51.034;5.262;2023-11-18T09:41:09;9.10;89.20
12839;DHT22;6486;51.034;5.262;2023-11-18T09:43:42;9.10;89.20
12839;DHT22;6486;51.034;5.262;2023-11-18T09:46:11;9.10;89.30
12839;DHT22;6486;51.034;5.262;2023-11-18T09:48:53;9.20;89.90
12839;DHT22;6486;51.034;5.262;2023-11-18T09:51:26;9.20;89.30
12839;DHT22;6486;51.034;5.262;2023-11-18T09:54:04;9.20;89.40
12839;DHT22;6486;51.034;5.262;2023-11-18T09:59:15;9.20;89.40
12839;DHT22;6486;51.034;5.262;2023-11-18T10:01:56;9.30;89.50
12839;DHT22;6486;51.034;5.262;2023-11-18T10:04:24;9.30;89.60
12839;DHT22;6486;51.034;5.262;2023-11-18T10:06:53;9.30;89.50
12839;DHT22;6486;51.034;5.262;2023-11-18T10:09:20;9.30;89.60
12839;DHT22;6486;51.034;5.262;2023-11-18T10:11:54;9.30;90.10
12839;DHT22;6486;51.034;5.262;2023-11-18T10:14:28;9.40;89.80
12839;DHT22;6486;51.034;5.262;2023-11-18T10:16:55;9.40;89.80
12839;DHT22;6486;51.034;5.262;2023-11-18T10:19:21;9.50;89.90
12839;DHT22;6486;51.034;5.262;2023-11-18T10:21:47;9.50;89.90
12839;DHT22;6486;51.034;5.262;2023-11-18T10:24:15;9.50;89.90
12839;DHT22;6486;51.034;5.262;2023-11-18T10:27:05;9.50;89.90
12839;DHT22;6486;51.034;5.262;2023-11-18T10:29:34;9.60;90.00
12839;DHT22;6486;51.034;5.262;2023-11-18T10:32:06;9.50;90.30
12839;DHT22;6486;51.034;5.262;2023-11-18T10:34:42;9.60;90.10
12839;DHT22;6486;51.034;5.262;2023-11-18T10:37:09;9.60;90.10
12839;DHT22;6486;51.034;5.262;2023-11-18T10:39:36;9.60;90.10
12839;DHT22;6486;51.034;5.262;2023-11-18T10:42:03;9.70;90.10
12839;DHT22;6486;51.034;5.262;2023-11-18T10:44:29;9.70;90.10
12839;DHT22;6486;51.034;5.262;2023-11-18T10:46:55;9.70;90.10
12839;DHT22;6486;51.034;5.262;2023-11-18T10:49:27;9.70;90.20
12839;DHT22;6486;51.034;5.262;2023-11-18T10:51:54;9.70;90.20
12839;DHT22;6486;51.034;5.262;2023-11-18T10:54:21;9.70;90.30
12839;DHT22;6486;51.034;5.262;2023-11-18T10:56:48;9.70;90.30
12839;DHT22;6486;51.034;5.262;2023-11-18T10:59:14;9.70;90.30
12839;DHT22;6486;51.034;5.262;2023-11-18T11:01:44;9.70;90.40
12839;DHT22;6486;51.034;5.262;2023-11-18T11:04:13;9.80;90.40
12839;DHT22;6486;51.034;5.262;2023-11-18T11:06:44;9.80;90.40
12839;DHT22;6486;51.034;5.262;2023-11-18T11:09:20;9.80;90.40
12839;DHT22;6486;51.034;5.262;2023-11-18T11:12:00;9.80;90.40
12839;DHT22;6486;51.034;5.262;2023-11-18T11:14:33;9.80;90.40
12839;DHT22;6486;51.034;5.262;2023-11-18T11:17:06;9.80;90.40
12839;DHT22;6486;51.034;5.262;2023-11-18T11:19:58;9.80;90.40
12839;DHT22;6486;51.034;5.262;2023-11-18T11:22:46;9.80;90.50
12839;DHT22;6486;51.034;5.262;2023-11-18T11:25:22;9.80;90.50
12839;DHT22;6486;51.034;5.262;2023-11-18T11:28:00;9.80;90.80
12839;DHT22;6486;51.034;5.262;2023-11-18T11:30:49;9.80;90.50
12839;DHT22;6486;51.034;5.262;2023-11-18T11:33:39;9.80;90.60
12839;DHT22;6486;51.034;5.262;2023-11-18T11:36:11;9.80;90.60
12839;DHT22;6486;51.034;5.262;2023-11-18T11:38:38;9.80;90.60
12839;DHT22;6486;51.034;5.262;2023-11-18T11:41:07;9.90;90.60
12839;DHT22;6486;51.034;5.262;2023-11-18T11:43:35;9.90;90.60
12839;DHT22;6486;51.034;5.262;2023-11-18T11:46:01;9.90;90.60
12839;DHT22;6486;51.034;5.262;2023-11-18T11:48:37;9.90;90.70
12839;DHT22;6486;51.034;5.262;2023-11-18T11:51:27;9.80;90.70
12839;DHT22;6486;51.034;5.262;2023-11-18T11:54:02;9.80;90.80
12839;DHT22;6486;51.034;5.262;2023-11-18T11:56:45;9.80;90.80
12839;DHT22;6486;51.034;5.262;2023-11-18T11:59:56;9.80;90.90
12839;DHT22;6486;51.034;5.262;2023-11-18T12:02:27;9.90;90.90
12839;DHT22;6486;51.034;5.262;2023-11-18T12:04:58;9.90;90.90
12839;DHT22;6486;51.034;5.262;2023-11-18T12:07:27;9.90;90.90
12839;DHT22;6486;51.034;5.262;2023-11-18T12:09:57;9.90;90.90
12839;DHT22;6486;51.034;5.262;2023-11-18T12:12:25;9.90;91.00
12839;DHT22;6486;51.034;5.262;2023-11-18T12:14:57;9.90;91.00
12839;DHT22;6486;51.034;5.262;2023-11-18T12:23:13;10.00;90.70
12839;DHT22;6486;51.034;5.262;2023-11-18T12:25:43;10.00;90.60
12839;DHT22;6486;51.034;5.262;2023-11-18T12:28:24;10.00;90.60
12839;DHT22;6486;51.034;5.262;2023-11-18T12:30:55;10.00;90.70
12839;DHT22;6486;51.034;5.262;2023-11-18T12:41:40;10.00;90.80
12839;DHT22;6486;51.034;5.262;2023-11-18T12:46:52;10.00;90.80
12839;DHT22;6486;51.034;5.262;2023-11-18T12:49:20;10.00;90.80
12839;DHT22;6486;51.034;5.262;2023-11-18T12:51:54;10.00;90.80
12839;DHT22;6486;51.034;5.262;2023-11-18T12:54:26;10.10;90.90
12839;DHT22;6486;51.034;5.262;2023-11-18T12:56:55;10.10;90.90
12839;DHT22;6486;51.034;5.262;2023-11-18T12:59:21;10.10;90.90
12839;DHT22;6486;51.034;5.262;2023-11-18T13:01:47;10.10;90.90
12839;DHT22;6486;51.034;5.262;2023-11-18T13:04:22;10.10;90.90
12839;DHT22;6486;51.034;5.262;2023-11-18T13:06:50;10.10;91.00
12839;DHT22;6486;51.034;5.262;2023-11-18T13:09:17;10.10;91.00
12839;DHT22;6486;51.034;5.262;2023-11-18T13:11:56;10.10;91.00
12839;DHT22;6486;51.034;5.262;2023-11-18T13:14:26;10.10;91.00
12839;DHT22;6486;51.034;5.262;2023-11-18T13:16:56;10.10;91.40
12839;DHT22;6486;51.034;5.262;2023-11-18T13:19:28;10.10;91.00
12839;DHT22;6486;51.034;5.262;2023-11-18T13:22:21;10.20;91.10
12839;DHT22;6486;51.034;5.262;2023-11-18T13:24:47;10.20;91.10
12839;DHT22;6486;51.034;5.262;2023-11-18T13:27:16;10.20;91.10
12839;DHT22;6486;51.034;5.262;2023-11-18T13:29:46;10.20;91.10
12839;DHT22;6486;51.034;5.262;2023-11-18T13:32:15;10.20;91.10
12839;DHT22;6486;51.034;5.262;2023-11-18T13:34:41;10.20;91.10
12839;DHT22;6486;51.034;5.262;2023-11-18T13:37:08;10.20;91.10
12839;DHT22;6486;51.034;5.262;2023-11-18T13:39:34;10.20;91.10
12839;DHT22;6486;51.034;5.262;2023-11-18T13:42:23;10.20;91.20
12839;DHT22;6486;51.034;5.262;2023-11-18T13:44:49;10.10;91.20
12839;DHT22;6486;51.034;5.262;2023-11-18T13:47:19;10.10;91.20
12839;DHT22;6486;51.034;5.262;2023-11-18T13:49:48;10.10;91.20
12839;DHT22;6486;51.034;5.262;2023-11-18T13:52:15;10.10;91.20
12839;DHT22;6486;51.034;5.262;2023-11-18T13:54:44;10.10;91.20
12839;DHT22;6486;51.034;5.262;2023-11-18T13:57:10;10.10;91.30
12839;DHT22;6486;51.034;5.262;2023-11-18T13:59:37;10.10;91.30
12839;DHT22;6486;51.034;5.262;2023-11-18T14:02:04;10.10;91.40
12839;DHT22;6486;51.034;5.262;2023-11-18T14:04:31;10.10;91.40
12839;DHT22;6486;51.034;5.262;2023-11-18T14:07:00;10.10;91.40
12839;DHT22;6486;51.034;5.262;2023-11-18T14:09:30;10.10;91.40
12839;DHT22;6486;51.034;5.262;2023-11-18T14:11:58;10.10;91.50
12839;DHT22;6486;51.034;5.262;2023-11-18T14:14:24;10.10;91.50
12839;DHT22;6486;51.034;5.262;2023-11-18T14:16:53;10.10;91.50
12839;DHT22;6486;51.034;5.262;2023-11-18T14:19:23;10.10;91.60
12839;DHT22;6486;51.034;5.262;2023-11-18T14:21:50;10.10;91.60
12839;DHT22;6486;51.034;5.262;2023-11-18T14:24:16;10.10;91.60
12839;DHT22;6486;51.034;5.262;2023-11-18T14:26:43;10.10;91.60
12839;DHT22;6486;51.034;5.262;2023-11-18T14:29:09;10.10;91.60
12839;DHT22;6486;51.034;5.262;2023-11-18T14:31:34;10.10;91.60
12839;DHT22;6486;51.034;5.262;2023-11-18T14:36:32;10.10;91.40
12839;DHT22;6486;51.034;5.262;2023-11-18T14:38:59;10.10;91.70
12839;DHT22;6486;51.034;5.262;2023-11-18T14:41:25;10.10;91.70
12839;DHT22;6486;51.034;5.262;2023-11-18T14:43:55;10.20;91.70
12839;DHT22;6486;51.034;5.262;2023-11-18T14:46:21;10.10;91.70
12839;DHT22;6486;51.034;5.262;2023-11-18T14:48:46;10.10;91.70
12839;DHT22;6486;51.034;5.262;2023-11-18T14:51:12;10.10;91.70
12839;DHT22;6486;51.034;5.262;2023-11-18T14:53:38;10.10;92.00
12839;DHT22;6486;51.034;5.262;2023-11-18T14:56:04;10.10;91.70
12839;DHT22;6486;51.034;5.262;2023-11-18T14:58:32;10.10;91.70
12839;DHT22;6486;51.034;5.262;2023-11-18T15:01:04;10.20;91.80
12839;DHT22;6486;51.034;5.262;2023-11-18T15:03:33;10.20;91.80
12839;DHT22;6486;51.034;5.262;2023-11-18T15:05:59;10.20;91.80
12839;DHT22;6486;51.034;5.262;2023-11-18T15:08:24;10.20;91.90
12839;DHT22;6486;51.034;5.262;2023-11-18T15:10:50;10.20;91.90
12839;DHT22;6486;51.034;5.262;2023-11-18T15:13:16;10.20;91.90
12839;DHT22;6486;51.034;5.262;2023-11-18T15:15:43;10.20;91.90
12839;DHT22;6486;51.034;5.262;2023-11-18T15:18:13;10.20;91.90
12839;DHT22;6486;51.034;5.262;2023-11-18T15:20:45;10.20;91.90
12839;DHT22;6486;51.034;5.262;2023-11-18T15:23:11;10.20;91.90
12839;DHT22;6486;51.034;5.262;2023-11-18T15:25:38;10.30;92.00
12839;DHT22;6486;51.034;5.262;2023-11-18T15:28:05;10.30;92.00
12839;DHT22;6486;51.034;5.262;2023-11-18T15:30:36;10.30;92.00
12839;DHT22;6486;51.034;5.262;2023-11-18T15:33:01;10.30;92.00
12839;DHT22;6486;51.034;5.262;2023-11-18T15:35:27;10.30;92.10
12839;DHT22;6486;51.034;5.262;2023-11-18T15:37:54;10.30;92.10
12839;DHT22;6486;51.034;5.262;2023-11-18T15:40:20;10.30;92.10
12839;DHT22;6486;51.034;5.262;2023-11-18T15:42:47;10.40;92.20
12839;DHT22;6486;51.034;5.262;2023-11-18T15:45:22;10.40;92.20
12839;DHT22;6486;51.034;5.262;2023-11-18T15:47:52;10.40;92.20
12839;DHT22;6486;51.034;5.262;2023-11-18T15:50:17;10.40;92.30
12839;DHT22;6486;51.034;5.262;2023-11-18T15:52:47;10.40;92.30
12839;DHT22;6486;51.034;5.262;2023-11-18T15:55:14;10.40;92.30
12839;DHT22;6486;51.034;5.262;2023-11-18T15:57:45;10.40;92.30
12839;DHT22;6486;51.034;5.262;2023-11-18T16:00:18;10.40;92.30
12839;DHT22;6486;51.034;5.262;2023-11-18T16:03:04;10.50;92.60
12839;DHT22;6486;51.034;5.262;2023-11-18T16:05:33;10.50;92.30
12839;DHT22;6486;51.034;5.262;2023-11-18T16:07:59;10.50;92.40
12839;DHT22;6486;51.034;5.262;2023-11-18T16:10:27;10.50;92.40
12839;DHT22;6486;51.034;5.262;2023-11-18T16:12:57;10.50;92.40
12839;DHT22;6486;51.034;5.262;2023-11-18T16:15:24;10.50;92.40
12839;DHT22;6486;51.034;5.262;2023-11-18T16:17:51;10.50;92.50
12839;DHT22;6486;51.034;5.262;2023-11-18T16:20:22;10.50;92.50
12839;DHT22;6486;51.034;5.262;2023-11-18T16:22:49;10.50;92.50
12839;DHT22;6486;51.034;5.262;2023-11-18T16:25:15;10.50;92.60
12839;DHT22;6486;51.034;5.262;2023-11-18T16:27:44;10.60;92.70
12839;DHT22;6486;51.034;5.262;2023-11-18T16:30:10;10.60;92.80
12839;DHT22;6486;51.034;5.262;2023-11-18T16:32:36;10.60;92.80